Heathrow, Florida
Current Conditions -  °F | °C
As of 2:53 PM on Wednesday 26 Nov 2014 (Local Time) from KSFB Reporting Station
Clear Clear  
Wind Chill: 59°   Ceiling: Unl
Heat Index: 59°   Visibility: 10mi
Dew Point: 48°   Wind: 10mph
Humidity: 67%   Direction: 300°WNW
Pressure: 30.13"   Gusts: NA
Location:  28.7595°N, 81.3431°W
Report Text: KSFB 261953Z 30009KT 10SM CLR 15/09 A3013 RMK AO2 SLP202 T01500089
Loading
Personal Weather Stations






























Interactive Weather Map New forecast layout! Learn more

10-Day Weather Forecast

Advertisements
Track Severe Weather on mobile